Aeroporto :
LOGIN :

Iscrizione | Disclaimer

   EN    FR    IT 

 










Sommario :    VFR   VFR Marginale   IFR   IFR Intensivo   IFR Molto Intensivo
Visibilità : 
Base nubi : 
>= 8 km
>= 3000ft
5 / 8 km
1000 / 3000 ft
1500m / 5 km
500 / 1000 ft
800 / 1500m
200 / 500 ft
< 800m
< 200 ft
Simboli :   Temporali  Nebbia  Neve Forte  Precipitazioni Forti  Vento > 20 kt
SIGMETs :   Varie  Temporali  Ghiacco  Turbolenza  Onda orograficha  Ceneri Vulcaniche







- Altitudine del aeroporto : 1367 ft
- Codice IATA : FDH


EDNY - Friedrichshafen

ULTIMO METAR :
  • 211120Z 22008KT 180V250 9999 FEW034 23/14 Q1013

METARs OBSOLETI :
  • 211050Z 24007KT 190V270 9999 SCT029 22/15 Q1013
  • 211020Z 25005KT 210V310 9999 SCT027 21/15 Q1013
  • 210950Z 25007KT 210V280 9999 SCT026 21/14 Q1013
  • 210920Z 26005KT 220V310 9999 SCT029 20/14 Q1013
  • 210850Z 25009KT 210V300 9999 FEW028 SCT075 20/14 Q1013

TAF TAF EDNY
Valido dal 21 a 12 ore il 22 a 12 ore UTC


211100Z 2112/2212 26006KT 9999 SCT030
TEMPO 2112/2118 28015G25KT 4000 TSRA SCT012 BKN020CB
BECMG 2119/2121 VRB03KT
PROB30
TEMPO 2206/2212 4000 SHRA BKN014CB
BECMG 2207/2209 26006KT
Nessun NOTAM noto per questo aeroporto.



MetMap, La meteo Aeronautica in un colpo d'occhio ! - Copyright ORBIFLY Dicembre 2007 - Disclaimer

ORBIFLY MET'MAP TEAM :

Programmazione e sviluppo : Alexandra Zaïnal
Concezione e sviluppo : Baudouin d'Aumeries
Co-Programmazione e sviluppo : Marc-Olivier Méhu
Supporto tecnico e logistico : Manuel Goepfert
Aiuto per la traduzione : Arnaldo La Scala

Contatto : metmap@orbifly.com




FONTI E CREDITI :

   NOAA